This is the latest recevied weather packets stored in our database for station/object DB0NU-15. If no packets are shown the sender has not sent any weather packets the latest 1 day(s).
| Time | Temp. | Humidity | Pressure | Rain* | Wind** | Luminosity | Snow |
|---|---|---|---|---|---|---|---|
| 1777956669 | 12.78° C | 88% | 1010 hPa | 0 mm | 0.89 m/s, 45° | - | - |
| 1777956065 | 12.22° C | 89% | 1010 hPa | 0 mm | 0.45 m/s, 35° | - | - |
| 1777955462 | 12.22° C | 89% | 1010.1 hPa | 0 mm | 0.45 m/s, 357° | - | - |
| 1777954858 | 12.22° C | 89% | 1010.2 hPa | 0 mm | 0.89 m/s, 42° | - | - |
| 1777954255 | 12.22° C | 90% | 1010 hPa | 0 mm | 0.45 m/s, 18° | - | - |
| 1777953048 | 12.22° C | 90% | 1010.4 hPa | 0 mm | 0.45 m/s, 8° | - | - |
| 1777952445 | 12.22° C | 90% | 1010.5 hPa | 0 mm | 0.89 m/s, 22° | - | - |
| 1777950635 | 12.78° C | 88% | 1010.9 hPa | 0 mm | 0.45 m/s, 12° | - | - |
| 1777949428 | 13.33° C | 84% | 1011 hPa | 1.27 mm | 1.79 m/s, 46° | - | - |
| 1777948221 | 13.33° C | 84% | 1011.2 hPa | 1.27 mm | 0.89 m/s, 48° | - | - |
| 1777947617 | 13.89° C | 84% | 1011.3 hPa | 1.27 mm | 0.89 m/s, 99° | - | - |
| 1777947074 | 13.33° C | 87% | 1011.5 hPa | 1.27 mm | 0.45 m/s, 86° | - | - |
| 1777946471 | 13.33° C | 87% | 1011.6 hPa | 1.27 mm | 0.45 m/s, 107° | - | - |
| 1777945867 | 13.89° C | 82% | 1011.9 hPa | 0 mm | 0.45 m/s, 148° | - | - |
| 1777945264 | 13.89° C | 79% | 1011.8 hPa | 0.25 mm | 0.45 m/s, 124° | - | - |
| 1777944660 | 13.33° C | 84% | 1011.9 hPa | 0.25 mm | 0.89 m/s, 158° | - | - |
| 1777944057 | 13.89° C | 80% | 1012 hPa | 0.25 mm | 0.45 m/s, 91° | - | - |
| 1777943454 | 13.33° C | 80% | 1012.1 hPa | 0.25 mm | 0.45 m/s, 45° | - | - |
| 1777941040 | 13.89° C | 78% | 1012.4 hPa | 0 mm | 0.45 m/s, 315° | - | - |
| 1777940437 | 14.44° C | 75% | 1012.3 hPa | 0 mm | 0.89 m/s, 324° | - | - |
| 1777939833 | 14.44° C | 75% | 1012.2 hPa | 0 mm | 0.89 m/s, 338° | - | - |
| 1777939230 | 14.44° C | 74% | 1012.3 hPa | 0 mm | 1.34 m/s, 354° | - | - |
| 1777938023 | 14.44° C | 74% | 1012.2 hPa | 0 mm | 1.34 m/s, 351° | - | - |
| 1777936816 | 14.44° C | 76% | 1012.6 hPa | 0 mm | 1.34 m/s, 329° | - | - |
| 1777936273 | 14.44° C | 77% | 1012.6 hPa | 0 mm | 1.34 m/s, 331° | - | - |
* Rain latest hour (hover to see other rain measurements)
** Current wind speed in m/s (hover to see current wind gust speed)